logo
Rechercher aéroport 
image banner adimage banner adimage banner ad
image banner ad

MMMVE - Monteverde

Situé à Progreso, Mexico

ICAO - , IATA -

Données fournies par Airmate  

Information générale

Coordonnées: N27°21'22" W100°41'11"
Élévation : 1000 feet MSL.
Variation magnétique : 4° East
Voir autres Aéroports à Coahuila

Données opérationnelles

Special qualification required
Heure actuelle UTC:
Heure actuelle locale:
Météo à : - ( 0 km )
METAR: KBCT 180053Z 19014KT 10SM CLR 29/24 A2991
Voir NOTAMs / SUP AIP / TFR affectant cet aéroport [VIEW]
Fréquences de communication: [VIEW]

Pistes:

Identifiant RWYQFULongueur (ft)Largeur (ft)SurfaceLDA (ft)
29300°218835ASPH
11120°218835ASPH

Coordonnées de l'aéroport

Adresse: Progreso Mexico

Vue satellite de MMMVE